LGKVLGMK

Guest
Details From LGKV - Kavala Megas Alexandros
To LGMK - Mikonos
Flight Number -
Tags generated
Created
Modified
Stats Distance 215 nm / 399 km
Max Altitude 20,900 ft / 6,370 m
Waypoints 5
Social Downloads 0
Likes 0
Share VATSIM

Download

Looking for another format? Having issues loading an existing format? Contact us
Advertisement - Login to hide

Notes

Basic altitude profile: - Ascent Rate: 700ft/min - Ascent Speed: 100kts - Cruise Altitude: 5000ft - Cruise Speed: 165kts - Descent Rate: 700ft/min - Descent Speed: 100kts Options: - Use NATs: no - Use PACOTS: no - Use low airways: no - Use high airways: no

Route

LGKV 4000N02500E 3900N02500E 3800N02500E LGMK

ID Type Via Altitude Latitude Longitude Leg Dist Tot Dist Heading (true) Name
O LGKV APT - 0 ft / 0 m 40.91478˚ 24.61893˚ - 0 nm - Kavala Megas Alexandros
4000N02500E LATLON - 19,500 ft / 5,944 m 40.00000˚ 25.00000˚ 57 nm 57 nm 162° / 163° -
3900N02500E LATLON - 20,900 ft / 6,370 m 39.00000˚ 25.00000˚ 60 nm 117 nm 180° / 180° -
3800N02500E LATLON - 8,000 ft / 2,438 m 38.00000˚ 25.00000˚ 60 nm 177 nm 180° / 180° -
O LGMK APT - 0 ft / 0 m 37.43539˚ 25.34814˚ 37 nm 215 nm 154° / 154° Mikonos

Altitude Profile

Advertisement - Login to hide

Weather


0- 5 10 15 20 25 30 35+ Temperature / ° C

Clouds and Precipitation
Forecast for 2017-12-16 12:00 UTC. Updated 14 minutes ago

Ground ~20,000 ft ~40,000 ft Winds

LGKV

Details ICAO LGKV (KVA)
Name Kavala Megas Alexandros
Region Greece
Timezone Europe/Athens (UTC+2.0)
Stats Elevation 18 ft / 5 m (AMSL)
Location 40.914780° 24.618932°
Runways 2
Magnetic Variation 4.893° E

METAR

LGKV 160720Z 00000KT 9999 FEW025 09/07 Q1009

Decode

TAF

Not found

Departure Runways

ID Width Length Bearing (true) Bearing (mag) Surface Threshold Offset Overrun Length
05L 100 ft / 30 m 9,833 ft / 2,997 m 55.25° 50.36° Asphalt 0 ft / 0 m 930 ft / 283 m
05R 150 ft / 46 m 9,833 ft / 2,997 m 55.25° 50.36° Asphalt 0 ft / 0 m 930 ft / 283 m
23L 150 ft / 46 m 9,833 ft / 2,997 m 235.27° 230.38° Asphalt 0 ft / 0 m 930 ft / 283 m
23R 100 ft / 30 m 9,833 ft / 2,997 m 235.27° 230.38° Asphalt 0 ft / 0 m 930 ft / 283 m

LGMK

Details ICAO LGMK (JMK)
Name Mikonos
Region Greece
Timezone Europe/Athens (UTC+2.0)
Stats Elevation 405 ft / 123 m (AMSL)
Location 37.435385° 25.348138°
Runways 1
Magnetic Variation 4.601° E

METAR

LGMK 160720Z 16014G24KT 9999 FEW018 SCT035 17/13 Q1015

Decode

TAF

Not found

Destination Runways

ID Width Length Bearing (true) Bearing (mag) Surface Threshold Offset Overrun Length
16 98 ft / 30 m 6,423 ft / 1,958 m 160.63° 156.03° Asphalt 0 ft / 0 m 200 ft / 61 m
34 98 ft / 30 m 6,423 ft / 1,958 m 340.63° 336.03° Asphalt 0 ft / 0 m 200 ft / 61 m

Popular Alternatives